MSR weather

Muş Airport
Muş, Muş Province, Turkey

Public forecast

Using degrees Celsius for public forecast. Weather courtesy of forecast.io.

Current aviation weather report (METAR) for Muş Airport

Report is more than 6 hours old.

Retrieved 2020/01/26 12:50 UTC (10 hours ago):

LTCK 261250Z 11006KT 5000 BR NSC M11/M14 Q1027 RMK RWY11 12005KT

Closest aviation forecast (TAF) to Muş Airport

Closest forecast is Batman Airport, 55.4 nm (102.7 km) SSW. Retrieved 2020/01/26 18:03 UTC (5 hours ago):

TAF LTCJ 261640Z 2618/2718 VRB02KT CAVOK PROB30 TEMPO 2701/2705 1200 BCFG BKN005